Time;durP1;ratioP1;P1;durP2;ratioP2;P2;SDS_P1;SDS_P2;PMS_P1;PMS_P2;Temp;Humidity;BMP_temperature;BMP_pressure;BME280_temperature;BME280_humidity;BME280_pressure;Samples;Min_cycle;Max_cycle;Signal;HPM_P1;HPM_P2
2022/07/25 00:01:21;;;;;;;0.95;0.35;;;23.60;50.30;;;;;;6192894;28;20086;-70
2022/07/25 00:04:22;;;;;;;0.45;0.40;;;23.50;50.30;;;;;;6185647;28;20252;-70
2022/07/25 00:07:23;;;;;;;0.90;0.50;;;23.50;50.40;;;;;;6168499;28;20469;-70
2022/07/25 00:10:23;;;;;;;0.45;0.40;;;23.50;50.40;;;;;;6182749;28;20117;-70
2022/07/25 00:13:24;;;;;;;0.30;0.30;;;23.50;50.40;;;;;;6192154;28;20065;-70
2022/07/25 00:16:25;;;;;;;0.50;0.40;;;23.50;50.50;;;;;;6170741;28;20035;-70
2022/07/25 00:19:25;;;;;;;0.82;0.35;;;23.50;50.50;;;;;;6172986;28;20406;-70
2022/07/25 00:22:26;;;;;;;0.50;0.40;;;23.50;50.50;;;;;;6192555;28;20060;-70
2022/07/25 00:25:27;;;;;;;0.75;0.47;;;23.50;50.60;;;;;;6179314;28;20131;-70
2022/07/25 00:28:27;;;;;;;0.43;0.40;;;23.50;50.60;;;;;;6168608;28;20034;-70
2022/07/25 00:31:28;;;;;;;0.63;0.50;;;23.50;50.60;;;;;;6187837;28;20072;-70
2022/07/25 00:34:28;;;;;;;0.45;0.40;;;23.50;50.70;;;;;;6188527;28;20034;-70
2022/07/25 00:37:29;;;;;;;0.25;0.25;;;23.50;50.70;;;;;;6167955;28;20106;-70
2022/07/25 00:40:30;;;;;;;0.32;0.30;;;23.50;50.80;;;;;;6190819;28;20037;-70
2022/07/25 00:43:31;;;;;;;0.50;0.45;;;23.50;50.80;;;;;;6192147;28;20113;-70
2022/07/25 00:46:32;;;;;;;0.45;0.30;;;23.50;50.80;;;;;;6191634;28;20053;-70
2022/07/25 00:49:32;;;;;;;0.30;0.30;;;23.50;50.80;;;;;;6189422;28;20086;-70
2022/07/25 00:52:33;;;;;;;0.50;0.43;;;23.50;50.80;;;;;;6168195;28;20499;-70
2022/07/25 00:55:34;;;;;;;0.38;0.38;;;23.50;50.90;;;;;;6186423;28;20060;-71
2022/07/25 00:58:35;;;;;;;0.30;0.30;;;23.50;50.90;;;;;;6192212;28;20485;-70
2022/07/25 01:01:37;;;;;;;0.32;0.32;;;23.50;50.90;;;;;;6183295;28;20030;-70
2022/07/25 01:04:38;;;;;;;0.30;0.30;;;23.50;50.90;;;;;;6190966;28;20034;-70
2022/07/25 01:07:39;;;;;;;0.50;0.40;;;23.50;50.90;;;;;;6167621;28;20066;-70
2022/07/25 01:10:39;;;;;;;0.47;0.47;;;23.50;51.70;;;;;;6175586;28;20104;-70
2022/07/25 01:13:40;;;;;;;0.80;0.40;;;23.50;51.00;;;;;;6191686;28;20516;-70
2022/07/25 01:16:41;;;;;;;0.40;0.38;;;23.50;51.00;;;;;;6190530;28;20030;-70
2022/07/25 01:19:42;;;;;;;0.50;0.40;;;23.50;51.10;;;;;;6191264;28;20030;-70
2022/07/25 01:22:43;;;;;;;0.40;0.38;;;23.50;51.10;;;;;;6191693;28;20035;-70
2022/07/25 01:25:44;;;;;;;0.40;0.40;;;23.40;51.10;;;;;;6179657;28;20556;-70
2022/07/25 01:28:45;;;;;;;0.52;0.40;;;23.50;51.20;;;;;;6191456;28;20695;-70
2022/07/25 01:31:45;;;;;;;0.35;0.30;;;23.50;51.20;;;;;;6191117;28;20019;-70
2022/07/25 01:34:46;;;;;;;0.30;0.30;;;23.40;51.20;;;;;;6191539;28;20054;-70
2022/07/25 01:37:47;;;;;;;0.32;0.32;;;23.40;51.20;;;;;;6169400;28;20507;-70
2022/07/25 01:40:47;;;;;;;0.20;0.20;;;23.40;51.20;;;;;;6174959;28;20157;-70
2022/07/25 01:43:48;;;;;;;0.32;0.30;;;23.40;51.30;;;;;;6167179;28;20023;-70
2022/07/25 01:46:49;;;;;;;0.47;0.38;;;23.40;51.30;;;;;;6180064;28;20491;-70
2022/07/25 01:49:49;;;;;;;0.38;0.38;;;23.40;51.30;;;;;;6190981;28;20117;-70
2022/07/25 01:52:50;;;;;;;0.28;0.20;;;23.40;51.30;;;;;;6170541;28;20038;-70
2022/07/25 01:55:50;;;;;;;0.30;0.30;;;23.40;51.30;;;;;;6182007;28;20045;-70
2022/07/25 01:58:51;;;;;;;0.38;0.30;;;23.40;51.30;;;;;;6192411;28;20091;-70
2022/07/25 02:01:52;;;;;;;0.57;0.40;;;23.40;51.30;;;;;;6184172;28;20110;-70
2022/07/25 02:04:53;;;;;;;0.32;0.32;;;23.40;51.40;;;;;;6186135;28;20058;-70
2022/07/25 02:07:53;;;;;;;0.38;0.30;;;23.40;51.40;;;;;;6190368;28;20553;-70
2022/07/25 02:10:55;;;;;;;0.30;0.30;;;23.40;51.40;;;;;;6193084;28;20018;-70
2022/07/25 02:13:55;;;;;;;0.40;0.40;;;23.40;51.40;;;;;;6171211;28;20104;-70
2022/07/25 02:16:56;;;;;;;0.20;0.20;;;23.40;51.50;;;;;;6180668;28;20481;-70
2022/07/25 02:19:56;;;;;;;0.25;0.25;;;23.40;51.50;;;;;;6194827;28;20049;-70
2022/07/25 02:22:57;;;;;;;0.20;0.20;;;23.40;51.50;;;;;;6177770;28;20031;-70
2022/07/25 02:25:58;;;;;;;0.30;0.30;;;23.40;51.60;;;;;;6171040;28;20038;-70
2022/07/25 02:28:58;;;;;;;0.30;0.30;;;23.40;51.60;;;;;;6194773;28;20030;-70
2022/07/25 02:31:59;;;;;;;0.40;0.40;;;23.40;51.60;;;;;;6186456;28;20398;-70
2022/07/25 02:35:00;;;;;;;0.40;0.40;;;23.40;51.70;;;;;;6171087;28;20023;-70
2022/07/25 02:38:01;;;;;;;0.40;0.40;;;23.40;51.70;;;;;;6186887;28;20133;-70
2022/07/25 02:41:02;;;;;;;0.32;0.30;;;23.40;51.70;;;;;;6178753;28;20361;-69
2022/07/25 02:44:03;;;;;;;0.50;0.40;;;23.40;51.70;;;;;;6194328;28;20022;-70
2022/07/25 02:47:04;;;;;;;0.43;0.30;;;23.40;51.70;;;;;;6187705;28;20496;-70
2022/07/25 02:50:05;;;;;;;0.40;0.40;;;23.30;51.40;;;;;;6170544;28;20050;-70
2022/07/25 02:53:05;;;;;;;0.30;0.30;;;23.30;50.20;;;;;;6185148;28;20477;-69
2022/07/25 02:56:06;;;;;;;0.40;0.20;;;23.50;49.50;;;;;;6176487;28;20035;-70
2022/07/25 02:59:07;;;;;;;0.30;0.30;;;23.50;49.10;;;;;;6192672;28;20478;-70
2022/07/25 03:02:08;;;;;;;0.38;0.30;;;23.60;48.70;;;;;;6188382;28;20041;-70
2022/07/25 03:05:11;;;;;;;0.70;0.25;;;23.80;48.40;;;;;;6170124;28;20035;-70
2022/07/25 03:08:11;;;;;;;0.45;0.40;;;23.90;48.20;;;;;;6183153;28;20096;-70
2022/07/25 03:11:12;;;;;;;0.82;0.30;;;23.90;47.90;;;;;;6191949;28;20026;-70
2022/07/25 03:14:13;;;;;;;0.20;0.20;;;24.00;47.80;;;;;;6173356;28;20030;-70
2022/07/25 03:17:13;;;;;;;0.30;0.28;;;24.00;47.50;;;;;;6174076;28;20034;-70
2022/07/25 03:20:14;;;;;;;0.40;0.38;;;24.10;47.50;;;;;;6194646;28;20140;-70
2022/07/25 03:23:15;;;;;;;0.30;0.30;;;24.10;47.30;;;;;;6182548;28;20526;-70
2022/07/25 03:26:15;;;;;;;0.28;0.28;;;24.10;47.30;;;;;;6189384;28;20026;-70
2022/07/25 03:29:16;;;;;;;0.55;0.45;;;24.10;47.20;;;;;;6193545;28;20347;-70
2022/07/25 03:32:16;;;;;;;0.30;0.30;;;24.10;47.00;;;;;;6191376;28;20064;-70
2022/07/25 03:35:17;;;;;;;0.30;0.28;;;24.10;47.00;;;;;;6169843;28;20560;-70
2022/07/25 03:38:18;;;;;;;0.65;0.40;;;24.20;47.10;;;;;;6179850;28;20058;-70
2022/07/25 03:41:19;;;;;;;0.30;0.30;;;24.20;46.90;;;;;;6175312;28;20059;-70
2022/07/25 03:44:21;;;;;;;0.50;0.30;;;24.20;46.90;;;;;;6187065;28;20532;-70
2022/07/25 03:47:22;;;;;;;0.32;0.32;;;24.20;46.80;;;;;;6192227;28;20037;-71
2022/07/25 03:50:22;;;;;;;0.65;0.40;;;24.10;46.70;;;;;;6169562;28;20055;-70
2022/07/25 03:53:23;;;;;;;0.30;0.20;;;24.10;46.70;;;;;;6177383;28;20027;-70
2022/07/25 03:56:24;;;;;;;0.30;0.30;;;24.20;46.70;;;;;;6193175;28;20041;-70
2022/07/25 03:59:25;;;;;;;0.40;0.28;;;24.20;46.70;;;;;;6192988;28;20477;-70
2022/07/25 04:02:26;;;;;;;0.30;0.28;;;24.10;46.60;;;;;;6192836;28;20068;-70
2022/07/25 04:05:26;;;;;;;0.30;0.28;;;24.20;46.50;;;;;;6190013;28;20027;-70
2022/07/25 04:08:27;;;;;;;0.30;0.30;;;24.20;46.40;;;;;;6185751;28;20420;-70
2022/07/25 04:11:29;;;;;;;0.20;0.20;;;24.20;46.40;;;;;;6168386;28;20021;-70
2022/07/25 04:14:30;;;;;;;0.20;0.20;;;24.20;46.40;;;;;;6183844;28;20673;-70
2022/07/25 04:17:31;;;;;;;0.22;0.22;;;24.20;46.40;;;;;;6192676;28;20026;-70
2022/07/25 04:20:31;;;;;;;0.30;0.30;;;24.20;46.30;;;;;;6170501;28;20276;-70
2022/07/25 04:23:33;;;;;;;0.32;0.32;;;24.20;46.30;;;;;;6173168;28;20026;-70
2022/07/25 04:26:33;;;;;;;0.28;0.28;;;24.20;46.20;;;;;;6192724;28;20360;-70
2022/07/25 04:29:34;;;;;;;0.22;0.20;;;24.20;46.20;;;;;;6179813;28;20110;-71
2022/07/25 04:32:34;;;;;;;0.73;0.30;;;24.20;46.20;;;;;;6167629;28;20482;-71
2022/07/25 04:35:35;;;;;;;0.30;0.30;;;24.20;46.10;;;;;;6188690;28;20034;-70
2022/07/25 04:38:36;;;;;;;0.68;0.43;;;24.10;47.40;;;;;;6187711;28;20116;-71
2022/07/25 04:41:36;;;;;;;0.30;0.20;;;23.90;47.50;;;;;;6188230;28;20038;-70
2022/07/25 04:44:37;;;;;;;0.30;0.30;;;23.80;47.80;;;;;;6180078;28;20105;-70
2022/07/25 04:47:37;;;;;;;0.30;0.30;;;23.80;48.10;;;;;;6168605;28;20041;-70
2022/07/25 04:50:38;;;;;;;0.20;0.20;;;23.70;48.50;;;;;;6186698;28;20058;-70
2022/07/25 04:53:39;;;;;;;0.20;0.20;;;23.60;48.90;;;;;;6186958;28;20485;-70
2022/07/25 04:56:39;;;;;;;0.20;0.20;;;23.60;49.20;;;;;;6191425;28;20105;-70
2022/07/25 05:00:33;;;;;;;0.20;0.20;;;23.60;49.30;;;;;;6192206;28;20662;-70
2022/07/25 05:03:34;;;;;;;0.40;0.40;;;23.60;49.50;;;;;;6190622;28;20030;-70
2022/07/25 05:06:35;;;;;;;0.15;0.15;;;23.60;49.50;;;;;;6191680;28;20568;-70
2022/07/25 05:09:35;;;;;;;0.20;0.20;;;23.50;49.50;;;;;;6191566;28;20085;-70
2022/07/25 05:12:36;;;;;;;0.30;0.30;;;23.50;49.60;;;;;;6191392;28;20022;-70
2022/07/25 05:15:36;;;;;;;0.20;0.20;;;23.50;49.70;;;;;;6175713;28;20029;-70
2022/07/25 05:18:37;;;;;;;0.20;0.20;;;23.50;49.60;;;;;;6167294;28;20054;-70
2022/07/25 05:21:38;;;;;;;0.20;0.20;;;23.50;49.80;;;;;;6189582;28;20575;-70
2022/07/25 05:24:38;;;;;;;0.20;0.20;;;23.50;49.90;;;;;;6190800;28;20034;-70
2022/07/25 05:27:40;;;;;;;0.25;0.25;;;23.50;50.00;;;;;;6191259;28;20557;-70
2022/07/25 05:30:40;;;;;;;0.25;0.25;;;23.50;50.00;;;;;;6191307;28;20027;-70
2022/07/25 05:33:41;;;;;;;0.38;0.30;;;23.50;50.00;;;;;;6192338;28;20493;-70
2022/07/25 05:36:42;;;;;;;0.20;0.20;;;23.50;50.00;;;;;;6174218;28;20121;-70
2022/07/25 05:39:43;;;;;;;0.20;0.20;;;23.50;50.10;;;;;;6172065;28;20359;-70
2022/07/25 05:42:44;;;;;;;0.20;0.20;;;23.50;50.20;;;;;;6171446;28;20038;-70
2022/07/25 05:45:46;;;;;;;0.30;0.30;;;23.50;50.90;;;;;;6185157;28;20137;-70
2022/07/25 05:48:46;;;;;;;0.25;0.20;;;23.50;50.40;;;;;;6195283;28;20054;-70
2022/07/25 05:51:47;;;;;;;0.28;0.20;;;23.50;50.40;;;;;;6175433;28;20093;-70
2022/07/25 05:54:48;;;;;;;0.20;0.20;;;23.50;50.40;;;;;;6183681;28;20053;-70
2022/07/25 05:57:49;;;;;;;0.20;0.20;;;23.50;50.40;;;;;;6195443;28;20026;-70
2022/07/25 06:00:52;;;;;;;0.30;0.30;;;23.50;50.40;;;;;;6179508;28;20034;-70
2022/07/25 06:03:53;;;;;;;0.20;0.20;;;23.50;50.50;;;;;;6197393;28;20081;-69
2022/07/25 06:06:53;;;;;;;0.20;0.20;;;23.50;50.50;;;;;;6183717;28;20031;-70
2022/07/25 06:09:54;;;;;;;0.30;0.30;;;23.50;50.50;;;;;;6192379;28;20493;-70
2022/07/25 06:12:54;;;;;;;0.30;0.30;;;23.40;50.40;;;;;;6176352;28;20026;-70
2022/07/25 06:15:55;;;;;;;0.38;0.30;;;23.50;50.50;;;;;;6182033;28;20018;-70
2022/07/25 06:18:56;;;;;;;0.30;0.30;;;23.40;50.40;;;;;;6196249;28;20148;-70
2022/07/25 06:21:57;;;;;;;0.20;0.20;;;23.40;50.50;;;;;;6178632;28;20038;-70
2022/07/25 06:24:57;;;;;;;0.25;0.25;;;23.40;50.50;;;;;;6181710;28;20057;-70
2022/07/25 06:27:58;;;;;;;0.20;0.20;;;23.40;50.50;;;;;;6171990;28;20030;-70
2022/07/25 06:30:59;;;;;;;0.20;0.20;;;23.40;50.60;;;;;;6180204;28;20029;-70
2022/07/25 06:33:59;;;;;;;0.20;0.20;;;23.40;50.60;;;;;;6195637;28;20029;-70
2022/07/25 06:37:00;;;;;;;0.30;0.30;;;23.40;50.60;;;;;;6180267;28;20405;-70
2022/07/25 06:40:00;;;;;;;0.38;0.38;;;23.40;50.60;;;;;;6171813;28;20039;-70
2022/07/25 06:43:01;;;;;;;0.30;0.30;;;23.40;50.70;;;;;;6194475;28;20027;-70
2022/07/25 06:46:02;;;;;;;0.50;0.28;;;23.40;50.70;;;;;;6194598;28;20061;-70
2022/07/25 06:49:02;;;;;;;0.40;0.30;;;23.40;50.80;;;;;;6174069;28;20054;-70
2022/07/25 06:52:04;;;;;;;0.30;0.30;;;23.40;50.80;;;;;;6185922;28;20433;-70
2022/07/25 06:55:06;;;;;;;0.55;0.43;;;23.40;50.80;;;;;;6194298;28;20026;-70
2022/07/25 06:58:07;;;;;;;0.30;0.30;;;23.40;50.90;;;;;;6193936;28;20244;-70
2022/07/25 07:01:08;;;;;;;0.65;0.40;;;23.40;50.90;;;;;;6183912;28;20134;-70
2022/07/25 07:04:08;;;;;;;0.63;0.45;;;23.40;51.00;;;;;;6187285;28;20050;-70
2022/07/25 07:07:09;;;;;;;0.30;0.30;;;23.40;51.00;;;;;;6194322;28;20498;-70
2022/07/25 07:10:10;;;;;;;0.40;0.40;;;23.40;51.20;;;;;;6185710;28;20997;-70
2022/07/25 07:13:12;;;;;;;0.50;0.50;;;23.30;51.20;;;;;;6191454;28;20216;-70
2022/07/25 07:16:13;;;;;;;1.02;0.30;;;23.40;51.20;;;;;;6188835;28;20054;-70
2022/07/25 07:19:14;;;;;;;0.50;0.40;;;23.40;51.30;;;;;;6171915;28;20025;-70
2022/07/25 07:22:14;;;;;;;0.38;0.38;;;23.40;51.30;;;;;;6182653;28;20655;-70
2022/07/25 07:25:16;;;;;;;0.30;0.30;;;23.40;51.40;;;;;;6188005;28;20022;-70
2022/07/25 07:28:17;;;;;;;0.22;0.22;;;23.30;51.30;;;;;;6187438;28;20541;-70
2022/07/25 07:31:18;;;;;;;0.30;0.30;;;23.30;51.30;;;;;;6188852;28;20026;-70
2022/07/25 07:34:19;;;;;;;0.50;0.40;;;23.30;51.40;;;;;;6175085;28;20099;-70
2022/07/25 07:37:20;;;;;;;0.30;0.30;;;23.30;51.40;;;;;;6164889;28;20018;-70
2022/07/25 07:40:21;;;;;;;0.20;0.20;;;23.30;51.40;;;;;;6193129;28;20078;-70
2022/07/25 07:43:22;;;;;;;0.50;0.40;;;23.30;51.40;;;;;;6193590;28;20027;-70
2022/07/25 07:46:22;;;;;;;0.40;0.32;;;23.30;51.50;;;;;;6193692;28;20034;-70
2022/07/25 07:49:23;;;;;;;0.30;0.30;;;23.30;51.50;;;;;;6194122;28;20053;-70
2022/07/25 07:52:23;;;;;;;0.30;0.30;;;23.30;51.60;;;;;;6180422;28;20022;-70
2022/07/25 07:55:43;;;;;;;0.30;0.30;;;23.30;51.50;;;;;;6194602;28;20026;-70
2022/07/25 07:58:44;;;;;;;0.63;0.43;;;23.30;51.60;;;;;;6193818;28;20042;-70
2022/07/25 08:01:45;;;;;;;0.52;0.40;;;23.30;51.60;;;;;;6190401;28;20039;-70
2022/07/25 08:04:46;;;;;;;0.28;0.28;;;23.30;51.60;;;;;;6169745;28;20015;-70
2022/07/25 08:07:46;;;;;;;0.73;0.50;;;23.30;51.70;;;;;;6182442;28;20084;-70
2022/07/25 08:10:47;;;;;;;0.30;0.30;;;23.30;51.70;;;;;;6193443;28;20025;-70
2022/07/25 08:13:48;;;;;;;0.55;0.40;;;23.30;51.70;;;;;;6181354;28;20041;-70
2022/07/25 08:16:51;;;;;;;0.57;0.52;;;23.30;51.60;;;;;;6170288;28;20384;-70
2022/07/25 08:19:52;;;;;;;1.15;0.40;;;23.30;51.70;;;;;;6193487;28;20587;-70
2022/07/25 08:22:52;;;;;;;0.50;0.50;;;23.30;51.70;;;;;;6185247;28;20379;-70
2022/07/25 08:25:53;;;;;;;0.38;0.38;;;23.30;51.70;;;;;;6170085;28;20026;-70
2022/07/25 08:28:54;;;;;;;0.40;0.30;;;23.30;51.70;;;;;;6186020;28;20088;-70
2022/07/25 08:31:54;;;;;;;1.98;0.50;;;23.30;51.80;;;;;;6194471;28;20485;-70
2022/07/25 08:34:55;;;;;;;0.45;0.40;;;23.30;51.80;;;;;;6174567;28;20280;-70
2022/07/25 08:37:57;;;;;;;0.50;0.47;;;23.30;51.90;;;;;;6186428;28;20035;-70
2022/07/25 08:40:58;;;;;;;0.25;0.25;;;23.30;51.80;;;;;;6183358;28;20030;-70
2022/07/25 08:44:01;;;;;;;0.43;0.30;;;23.30;51.80;;;;;;6173503;28;20026;-70
2022/07/25 08:47:02;;;;;;;0.50;0.50;;;23.30;51.80;;;;;;6185173;28;20112;-70
2022/07/25 08:50:07;;;;;;;0.55;0.40;;;23.30;51.90;;;;;;6184624;28;20046;-70
2022/07/25 08:53:07;;;;;;;0.50;0.30;;;23.30;51.90;;;;;;6193306;28;20050;-70
2022/07/25 08:56:08;;;;;;;0.40;0.40;;;23.30;51.90;;;;;;6192957;28;20117;-70
2022/07/25 08:59:09;;;;;;;0.52;0.52;;;23.30;51.90;;;;;;6192748;28;20026;-70
2022/07/25 09:02:13;;;;;;;0.50;0.50;;;23.30;51.90;;;;;;6191389;28;20354;-70
2022/07/25 09:05:15;;;;;;;0.47;0.40;;;23.30;51.90;;;;;;6170122;28;20434;-70
2022/07/25 09:08:16;;;;;;;0.60;0.50;;;23.30;51.90;;;;;;6177670;28;20061;-70
2022/07/25 09:11:28;;;;;;;0.50;0.40;;;23.30;52.00;;;;;;6193934;28;20081;-70
2022/07/25 09:14:29;;;;;;;0.77;0.60;;;23.30;52.00;;;;;;6191389;28;20026;-70
2022/07/25 09:17:30;;;;;;;0.50;0.40;;;23.30;52.00;;;;;;6198686;28;20023;-70
2022/07/25 09:20:46;;;;;;;0.50;0.50;;;23.30;52.00;;;;;;6200513;28;20394;-70
2022/07/25 09:23:46;;;;;;;0.93;0.52;;;23.30;52.00;;;;;;6201466;28;20023;-70
2022/07/25 09:26:52;;;;;;;0.82;0.60;;;23.30;52.00;;;;;;6199707;28;20394;-70
2022/07/25 09:29:53;;;;;;;0.68;0.60;;;23.30;52.00;;;;;;6184774;28;20033;-70
2022/07/25 09:33:00;;;;;;;0.52;0.50;;;23.30;51.90;;;;;;6177208;28;20493;-70
2022/07/25 09:36:09;;;;;;;0.55;0.55;;;23.30;51.90;;;;;;6176526;28;20030;-70
2022/07/25 09:39:10;;;;;;;0.50;0.50;;;23.30;52.00;;;;;;6184440;28;20033;-70
2022/07/25 09:42:21;;;;;;;0.65;0.57;;;23.30;51.90;;;;;;6176532;28;20118;-70
2022/07/25 09:45:21;;;;;;;0.63;0.60;;;23.20;51.90;;;;;;6194352;28;20026;-70
2022/07/25 09:48:22;;;;;;;1.35;0.63;;;23.30;52.00;;;;;;6199271;28;20081;-70
2022/07/25 09:51:25;;;;;;;0.50;0.50;;;23.30;52.00;;;;;;6180484;28;20042;-70
2022/07/25 09:54:25;;;;;;;0.55;0.55;;;23.30;52.00;;;;;;6185852;28;20102;-70
2022/07/25 09:57:26;;;;;;;0.85;0.77;;;23.30;52.00;;;;;;6190647;28;20504;-70
2022/07/25 10:00:28;;;;;;;0.95;0.80;;;23.30;52.00;;;;;;6183800;28;20560;-70
2022/07/25 10:03:51;;;;;;;0.90;0.77;;;23.30;52.10;;;;;;6176317;28;20030;-70
2022/07/25 10:07:03;;;;;;;0.55;0.50;;;23.30;52.10;;;;;;6200318;28;20468;-70
2022/07/25 10:10:04;;;;;;;0.50;0.50;;;23.30;52.10;;;;;;6191730;28;20033;-70
2022/07/25 10:13:15;;;;;;;1.27;0.80;;;23.30;52.10;;;;;;6199719;28;20030;-70
2022/07/25 10:16:24;;;;;;;1.00;0.73;;;23.30;52.10;;;;;;6179746;28;20069;-70
2022/07/25 10:19:42;;;;;;;0.73;0.70;;;23.30;52.10;;;;;;6180510;28;20021;-70
2022/07/25 10:22:47;;;;;;;0.80;0.60;;;23.30;52.20;;;;;;6179354;28;20039;-70
2022/07/25 10:25:59;;;;;;;0.73;0.60;;;23.30;52.20;;;;;;6188013;28;20516;-70
2022/07/25 10:29:00;;;;;;;0.82;0.80;;;23.30;52.20;;;;;;6174022;28;20027;-70
2022/07/25 10:32:06;;;;;;;0.90;0.75;;;23.30;52.20;;;;;;6196906;28;20030;-70
2022/07/25 10:35:16;;;;;;;0.60;0.60;;;23.30;52.20;;;;;;6186687;28;20386;-70
2022/07/25 10:38:23;;;;;;;0.70;0.65;;;23.30;52.20;;;;;;6172683;28;20027;-70
2022/07/25 10:41:25;;;;;;;0.95;0.80;;;23.30;52.30;;;;;;6190996;28;20097;-70
2022/07/25 10:44:38;;;;;;;0.70;0.65;;;23.30;52.30;;;;;;6193416;28;20027;-70
2022/07/25 10:47:41;;;;;;;1.10;0.90;;;23.20;52.20;;;;;;6171510;28;20027;-70
2022/07/25 10:50:47;;;;;;;1.02;0.80;;;23.30;52.30;;;;;;6182533;28;20093;-70
2022/07/25 10:53:48;;;;;;;1.02;0.93;;;23.30;52.30;;;;;;6195869;28;20032;-70
2022/07/25 10:56:57;;;;;;;1.33;0.90;;;23.30;52.40;;;;;;6170555;28;20031;-70
2022/07/25 11:00:05;;;;;;;1.17;0.90;;;23.30;52.30;;;;;;6194790;28;20511;-70
2022/07/25 11:03:06;;;;;;;0.98;0.90;;;23.30;52.20;;;;;;6196192;28;20077;-70
2022/07/25 11:06:07;;;;;;;1.65;1.23;;;23.30;52.20;;;;;;6171691;28;20035;-70
2022/07/25 11:09:21;;;;;;;1.55;1.10;;;23.30;52.30;;;;;;6171702;28;20045;-70
2022/07/25 11:12:22;;;;;;;0.85;0.80;;;23.30;52.40;;;;;;6194008;28;20153;-70
2022/07/25 11:15:23;;;;;;;1.33;1.20;;;23.30;52.30;;;;;;6189449;28;20489;-70
2022/07/25 11:18:36;;;;;;;1.75;1.50;;;23.30;52.40;;;;;;6171773;28;20031;-70
2022/07/25 11:21:47;;;;;;;1.40;1.23;;;23.30;52.50;;;;;;6186573;28;20038;-70
2022/07/25 11:24:48;;;;;;;1.80;1.30;;;23.30;52.80;;;;;;6195623;28;20026;-70
2022/07/25 11:27:55;;;;;;;1.40;1.10;;;23.30;52.70;;;;;;6195690;28;20034;-70
2022/07/25 11:31:03;;;;;;;1.73;1.30;;;23.30;52.50;;;;;;6194974;28;20026;-70
2022/07/25 11:34:03;;;;;;;1.40;1.30;;;23.30;52.50;;;;;;6196219;28;20030;-70
2022/07/25 11:37:06;;;;;;;1.35;1.15;;;23.30;52.60;;;;;;6178603;28;20081;-70
2022/07/25 11:40:08;;;;;;;1.73;1.10;;;23.30;52.60;;;;;;6178737;28;20137;-70
2022/07/25 11:43:19;;;;;;;2.10;1.38;;;23.30;52.50;;;;;;6195509;28;20061;-70
2022/07/25 11:46:20;;;;;;;1.67;1.33;;;23.30;52.60;;;;;;6192803;28;20113;-71
2022/07/25 11:49:20;;;;;;;1.58;1.30;;;23.30;52.70;;;;;;6194170;28;20060;-69
2022/07/25 11:52:29;;;;;;;9.30;1.35;;;23.30;52.70;;;;;;6194001;28;20030;-69
2022/07/25 11:55:32;;;;;;;3.17;1.40;;;23.30;52.90;;;;;;6193267;28;20027;-69
2022/07/25 11:58:33;;;;;;;4.18;1.20;;;23.30;53.00;;;;;;6193797;28;20027;-69
2022/07/25 12:01:39;;;;;;;2.40;1.60;;;23.30;53.00;;;;;;6193806;28;20108;-69
2022/07/25 12:04:40;;;;;;;3.78;1.55;;;23.30;53.00;;;;;;6193015;28;20026;-69
2022/07/25 12:07:49;;;;;;;1.42;1.23;;;23.30;52.90;;;;;;6176496;28;20105;-69
2022/07/25 12:10:50;;;;;;;1.52;1.35;;;23.30;52.90;;;;;;6171932;28;20613;-69
2022/07/25 12:14:04;;;;;;;2.10;1.30;;;23.30;52.90;;;;;;6182160;28;20058;-69
2022/07/25 12:17:05;;;;;;;1.10;1.00;;;23.30;52.90;;;;;;6189790;28;20050;-69
2022/07/25 12:20:36;;;;;;;1.50;1.30;;;23.20;52.80;;;;;;6193068;28;20342;-69
2022/07/25 12:23:40;;;;;;;3.00;1.58;;;23.30;52.90;;;;;;6188575;28;20042;-69
2022/07/25 12:26:41;;;;;;;1.40;1.20;;;23.30;52.90;;;;;;6192202;28;20124;-69
2022/07/25 12:29:42;;;;;;;1.63;1.38;;;23.30;52.90;;;;;;6193145;28;20054;-69
2022/07/25 12:32:43;;;;;;;1.90;1.15;;;23.30;52.90;;;;;;6176993;28;20018;-69
2022/07/25 12:35:44;;;;;;;1.20;1.10;;;23.30;52.90;;;;;;6174534;28;20063;-69
2022/07/25 12:38:44;;;;;;;1.88;1.30;;;23.30;52.90;;;;;;6192576;28;20185;-69
2022/07/25 12:41:45;;;;;;;2.75;1.33;;;23.30;53.00;;;;;;6186803;28;20035;-69
2022/07/25 12:44:46;;;;;;;1.75;1.23;;;23.30;53.00;;;;;;6167921;28;20097;-69
2022/07/25 12:47:47;;;;;;;2.53;1.45;;;23.30;53.00;;;;;;6181534;28;20026;-69
2022/07/25 12:50:47;;;;;;;1.67;1.30;;;23.30;53.00;;;;;;6192375;28;20050;-69
2022/07/25 12:53:48;;;;;;;1.98;1.48;;;23.30;53.00;;;;;;6191520;28;20486;-69
2022/07/25 12:56:49;;;;;;;4.35;1.65;;;23.30;53.00;;;;;;6192194;28;20022;-69
2022/07/25 12:59:50;;;;;;;1.75;1.40;;;23.20;52.90;;;;;;6191730;28;20080;-69
2022/07/25 13:02:54;;;;;;;1.48;1.38;;;23.30;53.00;;;;;;6180708;28;20039;-69
2022/07/25 13:05:55;;;;;;;1.70;1.60;;;23.30;52.90;;;;;;6168593;28;20050;-69
2022/07/25 13:08:55;;;;;;;2.22;1.30;;;23.30;53.00;;;;;;6187548;28;20057;-69
2022/07/25 13:11:57;;;;;;;1.60;1.50;;;23.30;53.00;;;;;;6174627;28;20025;-69
2022/07/25 13:14:57;;;;;;;1.77;1.30;;;23.30;53.00;;;;;;6191702;28;20060;-69
2022/07/25 13:17:58;;;;;;;1.45;1.30;;;23.30;53.00;;;;;;6181983;28;20098;-69
2022/07/25 13:21:02;;;;;;;1.63;1.20;;;23.30;53.60;;;;;;6188091;28;20053;-69
2022/07/25 13:24:03;;;;;;;1.30;1.20;;;23.30;53.00;;;;;;6192208;28;20038;-69
2022/07/25 13:27:07;;;;;;;1.60;1.38;;;23.20;52.90;;;;;;6191799;28;20394;-69
2022/07/25 13:30:08;;;;;;;1.70;1.60;;;23.30;53.70;;;;;;6189292;28;20019;-69
2022/07/25 13:33:09;;;;;;;1.77;1.40;;;23.30;53.00;;;;;;6184427;28;20474;-69
2022/07/25 13:36:10;;;;;;;2.13;1.75;;;23.30;53.00;;;;;;6191495;28;20027;-69
2022/07/25 13:39:10;;;;;;;1.48;1.35;;;23.30;53.00;;;;;;6174869;28;20038;-69
2022/07/25 13:42:11;;;;;;;2.13;1.73;;;23.30;53.00;;;;;;6190795;28;20034;-69
2022/07/25 13:45:12;;;;;;;1.35;1.25;;;23.30;53.10;;;;;;6168318;28;20481;-69
2022/07/25 13:48:12;;;;;;;1.35;1.25;;;23.30;53.10;;;;;;6176510;28;20022;-69
2022/07/25 13:51:13;;;;;;;1.77;1.40;;;23.30;53.10;;;;;;6191271;28;20112;-69
2022/07/25 13:54:14;;;;;;;2.58;1.40;;;23.30;53.10;;;;;;6191969;28;20026;-69
2022/07/25 13:57:15;;;;;;;1.58;1.38;;;23.20;53.00;;;;;;6196438;28;20033;-69
2022/07/25 14:00:16;;;;;;;1.52;1.42;;;23.30;53.10;;;;;;6196022;28;20034;-69
2022/07/25 14:03:17;;;;;;;1.50;1.40;;;23.30;53.60;;;;;;6194821;28;20041;-69
2022/07/25 14:06:17;;;;;;;1.45;1.27;;;23.30;53.10;;;;;;6195376;28;20237;-69
2022/07/25 14:09:21;;;;;;;1.98;1.48;;;23.30;53.10;;;;;;6184865;28;20190;-69
2022/07/25 14:12:21;;;;;;;1.90;1.65;;;23.30;53.20;;;;;;6171851;28;20022;-68
2022/07/25 14:15:22;;;;;;;2.08;1.45;;;23.30;53.10;;;;;;6193467;28;20544;-69
2022/07/25 14:18:23;;;;;;;3.75;1.80;;;23.40;54.40;;;;;;6188557;28;20077;-70
2022/07/25 14:21:23;;;;;;;83.35;11.63;;;23.40;54.80;;;;;;6177577;28;20049;-71
2022/07/25 14:24:24;;;;;;;25.75;4.80;;;23.50;54.70;;;;;;6181577;28;20488;-68
2022/07/25 14:27:25;;;;;;;30.40;6.57;;;23.50;54.00;;;;;;6171432;28;20333;-68
2022/07/25 14:30:25;;;;;;;13.15;2.42;;;23.50;54.30;;;;;;6192312;28;20084;-68
2022/07/25 14:33:26;;;;;;;11.15;2.90;;;23.40;53.90;;;;;;6190241;28;20025;-68
2022/07/25 14:36:27;;;;;;;9.80;2.58;;;23.40;53.90;;;;;;6171315;28;20054;-68
2022/07/25 14:39:27;;;;;;;18.05;3.40;;;23.40;53.80;;;;;;6182275;28;20489;-69
2022/07/25 14:42:28;;;;;;;11.57;3.50;;;23.40;53.70;;;;;;6195028;28;20030;-69
2022/07/25 14:45:29;;;;;;;14.73;3.28;;;23.40;53.70;;;;;;6194342;28;20030;-69
2022/07/25 14:48:29;;;;;;;9.27;3.22;;;23.40;53.70;;;;;;6194341;28;20537;-69
2022/07/25 14:51:31;;;;;;;18.52;4.22;;;23.40;53.70;;;;;;6194572;28;20201;-68
2022/07/25 14:54:32;;;;;;;19.45;3.63;;;23.40;53.70;;;;;;6193961;28;20480;-69
2022/07/25 14:57:34;;;;;;;15.73;3.40;;;23.40;53.60;;;;;;6194901;28;20061;-68
2022/07/25 15:00:34;;;;;;;14.43;3.50;;;23.40;53.60;;;;;;6176310;28;20042;-68
2022/07/25 15:03:36;;;;;;;11.20;3.25;;;23.40;53.60;;;;;;6177315;28;20026;-69
2022/07/25 15:06:37;;;;;;;11.32;3.10;;;23.40;53.60;;;;;;6194264;28;20026;-68
2022/07/25 15:09:37;;;;;;;14.85;2.83;;;23.40;53.60;;;;;;6194338;28;20116;-69
2022/07/25 15:12:38;;;;;;;8.82;2.78;;;23.40;53.50;;;;;;6194245;28;20488;-68
2022/07/25 15:15:39;;;;;;;8.55;3.03;;;23.40;53.50;;;;;;6193990;28;20030;-69
2022/07/25 15:18:40;;;;;;;10.88;3.10;;;23.40;53.50;;;;;;6194484;28;20501;-69
2022/07/25 15:21:40;;;;;;;6.72;2.72;;;23.40;53.50;;;;;;6186176;28;20039;-68
2022/07/25 15:24:41;;;;;;;6.72;2.67;;;23.30;53.40;;;;;;6192943;28;20018;-69
2022/07/25 15:27:41;;;;;;;7.30;2.78;;;23.40;53.50;;;;;;6193203;28;20394;-68
2022/07/25 15:30:42;;;;;;;8.13;2.75;;;23.30;53.40;;;;;;6193824;28;20033;-68
2022/07/25 15:33:43;;;;;;;8.30;2.60;;;23.40;53.50;;;;;;6193467;28;20026;-68
2022/07/25 15:36:44;;;;;;;6.43;2.45;;;23.40;53.50;;;;;;6170977;28;20082;-68
2022/07/25 15:39:44;;;;;;;8.93;2.42;;;23.40;53.50;;;;;;6170424;28;20027;-68
2022/07/25 15:42:45;;;;;;;6.20;2.60;;;23.30;53.40;;;;;;6169141;28;20082;-68
2022/07/25 15:45:46;;;;;;;8.05;2.40;;;23.40;53.50;;;;;;6183305;28;20022;-68